sensor_id;sensor_type;location;lat;lon;timestamp;pressure;altitude;pressure_sealevel;temperature;humidity
23166;BME280;11751;42.700;24.170;2023-01-15T00:01:32;94338.63;;;5.45;94.79
23166;BME280;11751;42.700;24.170;2023-01-15T00:03:59;94335.09;;;5.45;94.72
23166;BME280;11751;42.700;24.170;2023-01-15T00:06:26;94329.13;;;5.35;94.03
23166;BME280;11751;42.700;24.170;2023-01-15T00:08:52;94333.41;;;5.36;94.03
23166;BME280;11751;42.700;24.170;2023-01-15T00:11:19;94335.31;;;5.17;94.52
23166;BME280;11751;42.700;24.170;2023-01-15T00:13:45;94335.53;;;5.25;94.18
23166;BME280;11751;42.700;24.170;2023-01-15T00:16:14;94328.94;;;5.28;93.87
23166;BME280;11751;42.700;24.170;2023-01-15T00:18:39;94333.63;;;5.38;93.96
23166;BME280;11751;42.700;24.170;2023-01-15T00:21:08;94338.19;;;5.06;94.35
23166;BME280;11751;42.700;24.170;2023-01-15T00:23:34;94339.56;;;5.24;93.89
23166;BME280;11751;42.700;24.170;2023-01-15T00:26:21;94341.59;;;5.23;93.80
23166;BME280;11751;42.700;24.170;2023-01-15T00:29:09;94343.28;;;5.32;93.54
23166;BME280;11751;42.700;24.170;2023-01-15T00:31:34;94343.81;;;5.30;93.94
23166;BME280;11751;42.700;24.170;2023-01-15T00:34:01;94336.47;;;5.33;93.41
23166;BME280;11751;42.700;24.170;2023-01-15T00:36:26;94349.72;;;5.45;93.21
23166;BME280;11751;42.700;24.170;2023-01-15T00:38:51;94348.47;;;5.46;93.05
23166;BME280;11751;42.700;24.170;2023-01-15T00:41:17;94332.13;;;5.37;93.23
23166;BME280;11751;42.700;24.170;2023-01-15T00:43:42;94331.38;;;5.37;93.85
23166;BME280;11751;42.700;24.170;2023-01-15T00:46:08;94333.28;;;5.23;94.44
23166;BME280;11751;42.700;24.170;2023-01-15T00:48:34;94345.31;;;5.31;93.72
23166;BME280;11751;42.700;24.170;2023-01-15T00:51:00;94337.91;;;5.39;93.81
23166;BME280;11751;42.700;24.170;2023-01-15T00:53:26;94331.19;;;5.29;94.02
23166;BME280;11751;42.700;24.170;2023-01-15T00:55:51;94320.81;;;5.30;94.40
23166;BME280;11751;42.700;24.170;2023-01-15T00:58:17;94329.13;;;5.35;94.27
23166;BME280;11751;42.700;24.170;2023-01-15T01:00:42;94324.13;;;5.28;93.69
23166;BME280;11751;42.700;24.170;2023-01-15T01:03:08;94330.50;;;5.23;94.61
23166;BME280;11751;42.700;24.170;2023-01-15T01:05:33;94326.13;;;5.33;93.80
23166;BME280;11751;42.700;24.170;2023-01-15T01:07:58;94330.38;;;5.34;94.13
23166;BME280;11751;42.700;24.170;2023-01-15T01:10:27;94328.56;;;5.42;93.78
23166;BME280;11751;42.700;24.170;2023-01-15T01:12:52;94325.84;;;5.37;94.06
23166;BME280;11751;42.700;24.170;2023-01-15T01:15:19;94321.25;;;5.39;94.31
23166;BME280;11751;42.700;24.170;2023-01-15T01:17:45;94311.38;;;5.44;94.02
23166;BME280;11751;42.700;24.170;2023-01-15T01:20:15;94311.31;;;5.49;93.89
23166;BME280;11751;42.700;24.170;2023-01-15T01:22:41;94299.97;;;5.47;93.50
23166;BME280;11751;42.700;24.170;2023-01-15T01:25:07;94305.28;;;5.45;93.55
23166;BME280;11751;42.700;24.170;2023-01-15T01:27:33;94309.06;;;5.48;93.77
23166;BME280;11751;42.700;24.170;2023-01-15T01:29:58;94312.34;;;5.46;93.73
23166;BME280;11751;42.700;24.170;2023-01-15T01:32:24;94313.13;;;5.47;93.76
23166;BME280;11751;42.700;24.170;2023-01-15T01:34:49;94304.59;;;5.39;93.92
23166;BME280;11751;42.700;24.170;2023-01-15T01:37:14;94317.22;;;5.40;93.74
23166;BME280;11751;42.700;24.170;2023-01-15T01:39:40;94307.19;;;5.32;93.32
23166;BME280;11751;42.700;24.170;2023-01-15T01:42:16;94308.50;;;5.25;93.39
23166;BME280;11751;42.700;24.170;2023-01-15T01:47:14;94308.69;;;5.33;93.84
23166;BME280;11751;42.700;24.170;2023-01-15T01:49:41;94305.97;;;5.27;93.96
23166;BME280;11751;42.700;24.170;2023-01-15T01:52:12;94301.13;;;5.33;93.93
23166;BME280;11751;42.700;24.170;2023-01-15T01:54:39;94299.38;;;5.30;94.33
23166;BME280;11751;42.700;24.170;2023-01-15T01:57:06;94288.53;;;5.32;94.27
23166;BME280;11751;42.700;24.170;2023-01-15T01:59:33;94298.56;;;5.35;94.25
23166;BME280;11751;42.700;24.170;2023-01-15T02:01:59;94285.50;;;5.30;94.42
23166;BME280;11751;42.700;24.170;2023-01-15T02:04:26;94298.13;;;5.31;94.68
23166;BME280;11751;42.700;24.170;2023-01-15T02:06:53;94293.25;;;5.37;94.57
23166;BME280;11751;42.700;24.170;2023-01-15T02:09:19;94291.84;;;5.25;95.19
23166;BME280;11751;42.700;24.170;2023-01-15T02:11:44;94300.84;;;5.37;94.77
23166;BME280;11751;42.700;24.170;2023-01-15T02:14:24;94274.84;;;5.34;94.71
23166;BME280;11751;42.700;24.170;2023-01-15T02:19:44;94301.81;;;5.39;94.95
23166;BME280;11751;42.700;24.170;2023-01-15T02:22:38;94290.34;;;5.24;95.16
23166;BME280;11751;42.700;24.170;2023-01-15T02:25:26;94298.13;;;5.31;94.97
23166;BME280;11751;42.700;24.170;2023-01-15T02:28:09;94295.16;;;5.24;94.92
23166;BME280;11751;42.700;24.170;2023-01-15T02:30:42;94292.31;;;5.29;94.76
23166;BME280;11751;42.700;24.170;2023-01-15T02:33:25;94288.56;;;5.27;94.46
23166;BME280;11751;42.700;24.170;2023-01-15T02:35:58;94298.06;;;5.07;94.62
23166;BME280;11751;42.700;24.170;2023-01-15T02:38:34;94302.09;;;5.06;94.88
23166;BME280;11751;42.700;24.170;2023-01-15T02:41:02;94307.03;;;4.90;95.12
23166;BME280;11751;42.700;24.170;2023-01-15T02:43:33;94300.50;;;4.87;95.58
23166;BME280;11751;42.700;24.170;2023-01-15T02:46:00;94294.09;;;4.98;95.19
23166;BME280;11751;42.700;24.170;2023-01-15T02:48:29;94291.25;;;5.08;94.83
23166;BME280;11751;42.700;24.170;2023-01-15T02:51:11;94294.94;;;5.16;94.77
23166;BME280;11751;42.700;24.170;2023-01-15T02:53:40;94300.59;;;5.05;95.30
23166;BME280;11751;42.700;24.170;2023-01-15T02:56:13;94296.38;;;4.99;95.50
23166;BME280;11751;42.700;24.170;2023-01-15T02:58:41;94303.59;;;5.07;95.49
23166;BME280;11751;42.700;24.170;2023-01-15T03:01:18;94302.25;;;5.19;95.19
23166;BME280;11751;42.700;24.170;2023-01-15T03:03:51;94299.38;;;5.30;94.91
23166;BME280;11751;42.700;24.170;2023-01-15T03:06:44;94296.91;;;5.27;94.58
23166;BME280;11751;42.700;24.170;2023-01-15T03:09:12;94297.97;;;5.18;95.30
23166;BME280;11751;42.700;24.170;2023-01-15T03:11:43;94304.69;;;5.28;95.08
23166;BME280;11751;42.700;24.170;2023-01-15T03:14:21;94297.97;;;5.18;95.47
23166;BME280;11751;42.700;24.170;2023-01-15T03:16:56;94299.72;;;5.21;95.75
23166;BME280;11751;42.700;24.170;2023-01-15T03:19:26;94296.41;;;5.23;95.91
23166;BME280;11751;42.700;24.170;2023-01-15T03:24:39;94294.66;;;5.20;95.77
23166;BME280;11751;42.700;24.170;2023-01-15T03:27:07;94288.19;;;5.12;96.37
23166;BME280;11751;42.700;24.170;2023-01-15T03:29:37;94295.44;;;5.20;96.47
23166;BME280;11751;42.700;24.170;2023-01-15T03:32:03;94290.06;;;5.28;96.33
23166;BME280;11751;42.700;24.170;2023-01-15T03:34:35;94285.88;;;5.16;97.08
23166;BME280;11751;42.700;24.170;2023-01-15T03:37:02;94292.13;;;5.22;96.84
23166;BME280;11751;42.700;24.170;2023-01-15T03:39:28;94294.66;;;5.20;96.98
23166;BME280;11751;42.700;24.170;2023-01-15T03:45:21;94301.84;;;5.04;97.34
23166;BME280;11751;42.700;24.170;2023-01-15T03:48:16;94299.38;;;5.01;97.38
23166;BME280;11751;42.700;24.170;2023-01-15T03:50:52;94302.66;;;5.00;97.44
23166;BME280;11751;42.700;24.170;2023-01-15T03:53:22;94302.91;;;5.02;97.77
23166;BME280;11751;42.700;24.170;2023-01-15T03:56:02;94312.00;;;4.97;98.10
23166;BME280;11751;42.700;24.170;2023-01-15T03:58:38;94299.19;;;4.94;98.04
23166;BME280;11751;42.700;24.170;2023-01-15T04:01:09;94306.78;;;4.88;98.67
23166;BME280;11751;42.700;24.170;2023-01-15T04:03:36;94296.47;;;4.88;98.88
23166;BME280;11751;42.700;24.170;2023-01-15T04:06:03;94306.22;;;4.95;99.02
23166;BME280;11751;42.700;24.170;2023-01-15T04:08:32;94297.59;;;5.04;98.45
23166;BME280;11751;42.700;24.170;2023-01-15T04:11:00;94303.69;;;4.97;98.87
23166;BME280;11751;42.700;24.170;2023-01-15T04:13:26;94310.28;;;4.94;99.21
23166;BME280;11751;42.700;24.170;2023-01-15T04:15:52;94297.63;;;4.98;99.07
23166;BME280;11751;42.700;24.170;2023-01-15T04:18:18;94300.13;;;5.02;99.21
23166;BME280;11751;42.700;24.170;2023-01-15T04:20:44;94313.06;;;4.94;99.60
23166;BME280;11751;42.700;24.170;2023-01-15T04:23:10;94298.91;;;4.97;100.00
23166;BME280;11751;42.700;24.170;2023-01-15T04:25:36;94307.41;;;5.04;100.00
23166;BME280;11751;42.700;24.170;2023-01-15T04:28:01;94306.06;;;5.16;99.38
23166;BME280;11751;42.700;24.170;2023-01-15T04:30:27;94309.31;;;4.86;100.00
23166;BME280;11751;42.700;24.170;2023-01-15T04:32:52;94318.34;;;4.97;100.00
23166;BME280;11751;42.700;24.170;2023-01-15T04:35:18;94309.31;;;4.86;100.00
23166;BME280;11751;42.700;24.170;2023-01-15T04:37:45;94304.91;;;5.01;100.00
23166;BME280;11751;42.700;24.170;2023-01-15T04:40:11;94310.41;;;5.06;100.00
23166;BME280;11751;42.700;24.170;2023-01-15T04:42:59;94304.13;;;5.06;99.87
23166;BME280;11751;42.700;24.170;2023-01-15T04:45:44;94312.75;;;5.03;99.91
23166;BME280;11751;42.700;24.170;2023-01-15T04:48:10;94308.47;;;5.02;100.00
23166;BME280;11751;42.700;24.170;2023-01-15T04:50:37;94323.34;;;4.99;100.00
23166;BME280;11751;42.700;24.170;2023-01-15T04:53:02;94329.38;;;5.03;100.00
23166;BME280;11751;42.700;24.170;2023-01-15T04:55:28;94321.28;;;5.04;100.00
23166;BME280;11751;42.700;24.170;2023-01-15T04:57:54;94329.84;;;5.06;99.99
23166;BME280;11751;42.700;24.170;2023-01-15T05:00:20;94332.88;;;5.08;99.97
23166;BME280;11751;42.700;24.170;2023-01-15T05:02:45;94342.69;;;5.09;100.00
23166;BME280;11751;42.700;24.170;2023-01-15T05:05:10;94338.91;;;5.12;100.00
23166;BME280;11751;42.700;24.170;2023-01-15T05:07:36;94343.03;;;5.01;100.00
23166;BME280;11751;42.700;24.170;2023-01-15T05:10:01;94343.47;;;5.04;100.00
23166;BME280;11751;42.700;24.170;2023-01-15T05:12:27;94348.13;;;4.91;100.00
23166;BME280;11751;42.700;24.170;2023-01-15T05:14:52;94344.31;;;4.94;100.00
23166;BME280;11751;42.700;24.170;2023-01-15T05:17:18;94342.06;;;4.93;100.00
23166;BME280;11751;42.700;24.170;2023-01-15T05:19:43;94332.06;;;4.79;100.00
23166;BME280;11751;42.700;24.170;2023-01-15T05:22:09;94340.13;;;4.77;100.00
23166;BME280;11751;42.700;24.170;2023-01-15T05:24:34;94331.25;;;4.89;100.00
23166;BME280;11751;42.700;24.170;2023-01-15T05:27:00;94342.06;;;4.93;100.00
23166;BME280;11751;42.700;24.170;2023-01-15T05:29:26;94344.03;;;4.98;100.00
23166;BME280;11751;42.700;24.170;2023-01-15T05:31:51;94334.25;;;4.91;100.00
23166;BME280;11751;42.700;24.170;2023-01-15T05:34:16;94331.72;;;4.93;100.00
23166;BME280;11751;42.700;24.170;2023-01-15T05:36:42;94337.47;;;5.01;100.00
23166;BME280;11751;42.700;24.170;2023-01-15T05:39:08;94342.50;;;5.02;100.00
23166;BME280;11751;42.700;24.170;2023-01-15T05:41:34;94338.13;;;5.12;99.59
23166;BME280;11751;42.700;24.170;2023-01-15T05:44:25;94333.69;;;5.04;99.54
23166;BME280;11751;42.700;24.170;2023-01-15T05:46:53;94340.63;;;4.81;99.85
23166;BME280;11751;42.700;24.170;2023-01-15T05:49:21;94339.63;;;4.84;99.73
23166;BME280;11751;42.700;24.170;2023-01-15T05:51:47;94333.50;;;4.91;99.62
23166;BME280;11751;42.700;24.170;2023-01-15T05:54:18;94345.28;;;5.02;99.57
23166;BME280;11751;42.700;24.170;2023-01-15T05:56:44;94335.97;;;5.00;99.56
23166;BME280;11751;42.700;24.170;2023-01-15T05:59:11;94344.25;;;5.05;99.83
23166;BME280;11751;42.700;24.170;2023-01-15T06:01:37;94341.44;;;5.10;99.61
23166;BME280;11751;42.700;24.170;2023-01-15T06:04:04;94332.44;;;4.99;99.71
23166;BME280;11751;42.700;24.170;2023-01-15T06:06:31;94332.94;;;4.98;99.65
23166;BME280;11751;42.700;24.170;2023-01-15T06:08:57;94339.47;;;5.00;99.33
23166;BME280;11751;42.700;24.170;2023-01-15T06:11:22;94333.19;;;5.00;99.39
23166;BME280;11751;42.700;24.170;2023-01-15T06:13:48;94330.91;;;5.04;99.35
23166;BME280;11751;42.700;24.170;2023-01-15T06:16:13;94338.19;;;5.06;99.34
23166;BME280;11751;42.700;24.170;2023-01-15T06:18:39;94329.84;;;5.06;99.31
23166;BME280;11751;42.700;24.170;2023-01-15T06:21:07;94327.31;;;5.08;99.37
23166;BME280;11751;42.700;24.170;2023-01-15T06:23:33;94333.34;;;5.12;99.54
23166;BME280;11751;42.700;24.170;2023-01-15T06:26:06;94329.25;;;5.19;99.39
23166;BME280;11751;42.700;24.170;2023-01-15T06:28:32;94338.81;;;5.23;99.31
23166;BME280;11751;42.700;24.170;2023-01-15T06:30:58;94329.69;;;5.28;99.24
23166;BME280;11751;42.700;24.170;2023-01-15T06:33:24;94321.59;;;5.30;99.26
23166;BME280;11751;42.700;24.170;2023-01-15T06:35:49;94330.41;;;5.29;99.36
23166;BME280;11751;42.700;24.170;2023-01-15T06:38:15;94327.06;;;5.41;98.85
23166;BME280;11751;42.700;24.170;2023-01-15T06:40:40;94330.81;;;5.44;98.77
23166;BME280;11751;42.700;24.170;2023-01-15T06:43:08;94330.03;;;5.43;98.50
23166;BME280;11751;42.700;24.170;2023-01-15T06:45:52;94325.06;;;5.36;98.52
23166;BME280;11751;42.700;24.170;2023-01-15T06:48:50;94330.38;;;5.34;98.81
23166;BME280;11751;42.700;24.170;2023-01-15T06:51:15;94335.59;;;5.43;98.80
23166;BME280;11751;42.700;24.170;2023-01-15T06:53:45;94340.13;;;5.46;98.86
23166;BME280;11751;42.700;24.170;2023-01-15T06:56:12;94325.44;;;5.51;98.77
23166;BME280;11751;42.700;24.170;2023-01-15T06:58:39;94335.97;;;5.58;98.22
23166;BME280;11751;42.700;24.170;2023-01-15T07:01:13;94338.63;;;5.45;98.35
23166;BME280;11751;42.700;24.170;2023-01-15T07:03:39;94337.81;;;5.50;99.05
23166;BME280;11751;42.700;24.170;2023-01-15T07:06:07;94337.94;;;5.63;98.75
23166;BME280;11751;42.700;24.170;2023-01-15T07:08:33;94341.78;;;5.60;98.92
23166;BME280;11751;42.700;24.170;2023-01-15T07:11:06;94339.84;;;5.50;99.44
23166;BME280;11751;42.700;24.170;2023-01-15T07:13:33;94334.47;;;5.57;99.26
23166;BME280;11751;42.700;24.170;2023-01-15T07:16:00;94342.56;;;5.55;98.85
23166;BME280;11751;42.700;24.170;2023-01-15T07:18:27;94335.28;;;5.52;98.68
23166;BME280;11751;42.700;24.170;2023-01-15T07:20:54;94338.22;;;5.60;98.31
23166;BME280;11751;42.700;24.170;2023-01-15T07:23:21;94343.22;;;5.67;98.16
23166;BME280;11751;42.700;24.170;2023-01-15T07:25:47;94339.63;;;5.72;97.32
23166;BME280;11751;42.700;24.170;2023-01-15T07:28:12;94337.09;;;5.74;96.51
23166;BME280;11751;42.700;24.170;2023-01-15T07:30:37;94343.13;;;5.78;95.56
23166;BME280;11751;42.700;24.170;2023-01-15T07:33:03;94338.34;;;5.78;95.55
23166;BME280;11751;42.700;24.170;2023-01-15T07:35:28;94328.97;;;5.81;95.94
23166;BME280;11751;42.700;24.170;2023-01-15T07:37:55;94335.91;;;5.93;95.72
23166;BME280;11751;42.700;24.170;2023-01-15T07:40:20;94338.00;;;6.11;95.42
23166;BME280;11751;42.700;24.170;2023-01-15T07:42:46;94338.06;;;6.05;94.56
23166;BME280;11751;42.700;24.170;2023-01-15T07:45:29;94333.59;;;5.97;94.76
23166;BME280;11751;42.700;24.170;2023-01-15T07:48:13;94328.84;;;6.16;94.48
23166;BME280;11751;42.700;24.170;2023-01-15T07:50:57;94342.06;;;6.28;94.83
23166;BME280;11751;42.700;24.170;2023-01-15T07:53:26;94336.22;;;6.32;94.67
23166;BME280;11751;42.700;24.170;2023-01-15T07:55:51;94336.22;;;6.32;95.08
23166;BME280;11751;42.700;24.170;2023-01-15T07:58:16;94329.94;;;6.50;95.15
23166;BME280;11751;42.700;24.170;2023-01-15T08:00:42;94335.13;;;6.59;95.20
23166;BME280;11751;42.700;24.170;2023-01-15T08:03:07;94339.06;;;6.69;94.69
23166;BME280;11751;42.700;24.170;2023-01-15T08:05:33;94344.81;;;6.71;94.23
23166;BME280;11751;42.700;24.170;2023-01-15T08:07:58;94348.31;;;6.77;94.16
23166;BME280;11751;42.700;24.170;2023-01-15T08:10:24;94348.91;;;6.70;94.43
23166;BME280;11751;42.700;24.170;2023-01-15T08:12:50;94352.50;;;6.65;94.77
23166;BME280;11751;42.700;24.170;2023-01-15T08:15:38;94351.25;;;6.23;96.26
23166;BME280;11751;42.700;24.170;2023-01-15T08:18:04;94350.59;;;6.36;96.45
23166;BME280;11751;42.700;24.170;2023-01-15T08:20:30;94342.72;;;6.40;96.09
23166;BME280;11751;42.700;24.170;2023-01-15T08:22:55;94351.13;;;6.53;96.10
23166;BME280;11751;42.700;24.170;2023-01-15T08:25:23;94353.53;;;6.62;95.96
23166;BME280;11751;42.700;24.170;2023-01-15T08:27:49;94355.94;;;6.71;95.05
23166;BME280;11751;42.700;24.170;2023-01-15T08:30:21;94358.81;;;6.83;94.74
23166;BME280;11751;42.700;24.170;2023-01-15T08:32:47;94352.66;;;6.72;95.20
23166;BME280;11751;42.700;24.170;2023-01-15T08:35:13;94353.72;;;6.87;94.40
23166;BME280;11751;42.700;24.170;2023-01-15T08:37:41;94341.16;;;6.99;93.77
23166;BME280;11751;42.700;24.170;2023-01-15T08:40:08;94349.50;;;6.99;93.06
23166;BME280;11751;42.700;24.170;2023-01-15T08:42:34;94351.84;;;6.95;92.52
23166;BME280;11751;42.700;24.170;2023-01-15T08:44:59;94351.91;;;7.08;92.93
23166;BME280;11751;42.700;24.170;2023-01-15T08:47:25;94352.66;;;6.90;92.00
23166;BME280;11751;42.700;24.170;2023-01-15T08:49:50;94355.50;;;7.03;91.56
23166;BME280;11751;42.700;24.170;2023-01-15T08:52:16;94350.31;;;6.94;92.02
23166;BME280;11751;42.700;24.170;2023-01-15T08:54:41;94354.16;;;7.10;91.08
23166;BME280;11751;42.700;24.170;2023-01-15T08:57:07;94357.09;;;7.17;91.42
23166;BME280;11751;42.700;24.170;2023-01-15T08:59:34;94344.69;;;7.00;92.49
23166;BME280;11751;42.700;24.170;2023-01-15T09:01:59;94357.16;;;6.93;92.85
23166;BME280;11751;42.700;24.170;2023-01-15T09:04:25;94352.66;;;6.90;92.58
23166;BME280;11751;42.700;24.170;2023-01-15T09:06:50;94355.88;;;6.94;91.79
23166;BME280;11751;42.700;24.170;2023-01-15T09:09:16;94353.88;;;6.77;92.69
23166;BME280;11751;42.700;24.170;2023-01-15T09:11:43;94345.00;;;6.96;92.24
23166;BME280;11751;42.700;24.170;2023-01-15T09:14:10;94343.94;;;6.99;91.79
23166;BME280;11751;42.700;24.170;2023-01-15T09:16:37;94341.34;;;7.01;92.46
23166;BME280;11751;42.700;24.170;2023-01-15T09:19:03;94341.66;;;7.16;92.62
23166;BME280;11751;42.700;24.170;2023-01-15T09:21:29;94345.69;;;7.34;92.60
23166;BME280;11751;42.700;24.170;2023-01-15T09:23:55;94337.44;;;7.28;91.75
23166;BME280;11751;42.700;24.170;2023-01-15T09:26:30;94333.97;;;7.22;91.02
23166;BME280;11751;42.700;24.170;2023-01-15T09:28:55;94335.94;;;7.40;91.10
23166;BME280;11751;42.700;24.170;2023-01-15T09:31:22;94337.22;;;7.39;90.27
23166;BME280;11751;42.700;24.170;2023-01-15T09:33:48;94323.34;;;7.52;90.73
23166;BME280;11751;42.700;24.170;2023-01-15T09:36:19;94332.06;;;7.62;90.32
23166;BME280;11751;42.700;24.170;2023-01-15T09:38:45;94318.97;;;7.57;89.05
23166;BME280;11751;42.700;24.170;2023-01-15T09:41:12;94324.69;;;7.77;89.15
23166;BME280;11751;42.700;24.170;2023-01-15T09:44:19;94316.16;;;7.88;89.00
23166;BME280;11751;42.700;24.170;2023-01-15T09:47:08;94315.25;;;7.80;89.10
23166;BME280;11751;42.700;24.170;2023-01-15T09:49:55;94316.88;;;7.88;89.04
23166;BME280;11751;42.700;24.170;2023-01-15T09:52:35;94311.59;;;7.72;88.51
23166;BME280;11751;42.700;24.170;2023-01-15T09:57:39;94298.72;;;7.69;86.55
23166;BME280;11751;42.700;24.170;2023-01-15T10:00:11;94297.47;;;7.83;87.57
23166;BME280;11751;42.700;24.170;2023-01-15T10:02:41;94302.84;;;7.94;87.15
23166;BME280;11751;42.700;24.170;2023-01-15T10:05:27;94290.38;;;7.82;87.50
23166;BME280;11751;42.700;24.170;2023-01-15T10:08:08;94287.19;;;7.91;86.90
23166;BME280;11751;42.700;24.170;2023-01-15T10:10:47;94287.19;;;7.91;86.84
23166;BME280;11751;42.700;24.170;2023-01-15T10:13:29;94280.53;;;7.94;86.74
23166;BME280;11751;42.700;24.170;2023-01-15T10:15:56;94271.84;;;7.97;85.93
23166;BME280;11751;42.700;24.170;2023-01-15T10:18:23;94271.94;;;7.92;87.71
23166;BME280;11751;42.700;24.170;2023-01-15T10:29:01;94249.66;;;8.31;82.90
23166;BME280;11751;42.700;24.170;2023-01-15T10:34:26;94250.69;;;8.53;82.66
23166;BME280;11751;42.700;24.170;2023-01-15T10:37:19;94246.16;;;8.63;84.75
23166;BME280;11751;42.700;24.170;2023-01-15T10:39:58;94241.66;;;8.60;84.42
23166;BME280;11751;42.700;24.170;2023-01-15T10:47:49;94222.81;;;8.74;82.56
23166;BME280;11751;42.700;24.170;2023-01-15T10:50:19;94221.34;;;8.93;81.66
23166;BME280;11751;42.700;24.170;2023-01-15T10:56:06;94212.03;;;9.11;79.75
23166;BME280;11751;42.700;24.170;2023-01-15T10:58:39;94200.03;;;9.03;78.88
23166;BME280;11751;42.700;24.170;2023-01-15T11:01:16;94205.38;;;9.14;81.15
23166;BME280;11751;42.700;24.170;2023-01-15T11:03:44;94190.91;;;9.23;80.70
23166;BME280;11751;42.700;24.170;2023-01-15T11:06:15;94188.72;;;9.29;79.98
23166;BME280;11751;42.700;24.170;2023-01-15T11:08:52;94182.31;;;9.21;79.44
23166;BME280;11751;42.700;24.170;2023-01-15T11:11:27;94183.13;;;9.29;78.76
23166;BME280;11751;42.700;24.170;2023-01-15T11:14:13;94173.88;;;9.34;79.46
23166;BME280;11751;42.700;24.170;2023-01-15T11:16:56;94171.81;;;9.34;79.47
23166;BME280;11751;42.700;24.170;2023-01-15T11:19:35;94166.78;;;9.33;78.74
23166;BME280;11751;42.700;24.170;2023-01-15T11:22:09;94169.09;;;9.42;79.50
23166;BME280;11751;42.700;24.170;2023-01-15T11:24:37;94168.28;;;9.34;79.75
23166;BME280;11751;42.700;24.170;2023-01-15T11:27:14;94169.44;;;9.18;78.37
23166;BME280;11751;42.700;24.170;2023-01-15T11:29:43;94171.22;;;9.08;78.95
23166;BME280;11751;42.700;24.170;2023-01-15T11:32:38;94170.63;;;9.02;79.74
23166;BME280;11751;42.700;24.170;2023-01-15T11:35:14;94168.06;;;9.12;80.59
23166;BME280;11751;42.700;24.170;2023-01-15T11:37:40;94159.03;;;9.19;80.28
23166;BME280;11751;42.700;24.170;2023-01-15T11:40:16;94159.69;;;9.32;79.09
23166;BME280;11751;42.700;24.170;2023-01-15T11:42:45;94161.19;;;9.33;79.26
23166;BME280;11751;42.700;24.170;2023-01-15T11:45:29;94157.69;;;9.40;78.18
23166;BME280;11751;42.700;24.170;2023-01-15T11:48:22;94143.59;;;9.25;79.12
23166;BME280;11751;42.700;24.170;2023-01-15T11:51:13;94150.69;;;9.26;79.95
23166;BME280;11751;42.700;24.170;2023-01-15T11:53:41;94152.41;;;9.29;79.57
23166;BME280;11751;42.700;24.170;2023-01-15T11:56:13;94134.09;;;9.48;79.32
23166;BME280;11751;42.700;24.170;2023-01-15T11:58:46;94142.50;;;9.48;79.22
23166;BME280;11751;42.700;24.170;2023-01-15T12:01:27;94134.84;;;9.49;79.19
23166;BME280;11751;42.700;24.170;2023-01-15T12:03:57;94132.13;;;9.36;78.75
23166;BME280;11751;42.700;24.170;2023-01-15T12:06:25;94132.41;;;9.25;78.30
23166;BME280;11751;42.700;24.170;2023-01-15T12:11:49;94128.16;;;9.52;77.59
23166;BME280;11751;42.700;24.170;2023-01-15T12:14:40;94115.34;;;9.29;79.51
23166;BME280;11751;42.700;24.170;2023-01-15T12:25:20;94113.13;;;8.86;82.76
23166;BME280;11751;42.700;24.170;2023-01-15T12:27:57;94112.31;;;8.78;83.14
23166;BME280;11751;42.700;24.170;2023-01-15T12:30:50;94104.84;;;8.73;83.53
23166;BME280;11751;42.700;24.170;2023-01-15T12:36:00;94108.22;;;8.79;83.81
23166;BME280;11751;42.700;24.170;2023-01-15T12:41:06;94103.59;;;8.61;85.12
23166;BME280;11751;42.700;24.170;2023-01-15T12:43:33;94100.38;;;8.37;84.09
23166;BME280;11751;42.700;24.170;2023-01-15T12:46:22;94093.94;;;8.62;84.05
23166;BME280;11751;42.700;24.170;2023-01-15T12:49:03;94098.28;;;8.50;84.30
23166;BME280;11751;42.700;24.170;2023-01-15T12:52:02;94095.16;;;8.54;83.88
23166;BME280;11751;42.700;24.170;2023-01-15T12:54:35;94102.16;;;8.48;83.84
23166;BME280;11751;42.700;24.170;2023-01-15T12:57:37;94099.69;;;8.24;84.17
23166;BME280;11751;42.700;24.170;2023-01-15T13:00:23;94097.84;;;8.26;84.91
23166;BME280;11751;42.700;24.170;2023-01-15T13:05:32;94085.22;;;8.12;85.48
23166;BME280;11751;42.700;24.170;2023-01-15T13:10:26;94094.13;;;8.11;85.13
23166;BME280;11751;42.700;24.170;2023-01-15T13:13:01;94085.53;;;8.09;84.87
23166;BME280;11751;42.700;24.170;2023-01-15T13:15:36;94082.00;;;8.21;84.79
23166;BME280;11751;42.700;24.170;2023-01-15T13:18:21;94088.09;;;8.20;85.03
23166;BME280;11751;42.700;24.170;2023-01-15T13:20:50;94082.38;;;7.92;85.04
23166;BME280;11751;42.700;24.170;2023-01-15T13:28:34;94081.38;;;7.56;86.15
23166;BME280;11751;42.700;24.170;2023-01-15T13:34:05;94081.28;;;7.49;87.15
23166;BME280;11751;42.700;24.170;2023-01-15T13:36:37;94076.03;;;7.32;87.30
23166;BME280;11751;42.700;24.170;2023-01-15T13:39:06;94071.13;;;7.25;87.92
23166;BME280;11751;42.700;24.170;2023-01-15T13:41:37;94077.13;;;7.16;88.01
23166;BME280;11751;42.700;24.170;2023-01-15T13:44:23;94073.50;;;7.08;88.71
23166;BME280;11751;42.700;24.170;2023-01-15T13:47:06;94071.97;;;7.20;88.11
23166;BME280;11751;42.700;24.170;2023-01-15T13:49:39;94073.50;;;7.08;89.31
23166;BME280;11751;42.700;24.170;2023-01-15T13:52:07;94089.09;;;7.11;88.89
23166;BME280;11751;42.700;24.170;2023-01-15T13:54:44;94079.47;;;7.12;89.36
23166;BME280;11751;42.700;24.170;2023-01-15T13:57:23;94084.00;;;7.28;89.12
23166;BME280;11751;42.700;24.170;2023-01-15T13:59:49;94075.19;;;7.24;89.68
23166;BME280;11751;42.700;24.170;2023-01-15T14:02:36;94086.88;;;7.23;89.26
23166;BME280;11751;42.700;24.170;2023-01-15T14:07:55;94073.69;;;6.97;89.97
23166;BME280;11751;42.700;24.170;2023-01-15T14:10:25;94078.63;;;7.04;89.44
23166;BME280;11751;42.700;24.170;2023-01-15T14:15:56;94077.13;;;7.03;90.74
23166;BME280;11751;42.700;24.170;2023-01-15T14:23:52;94080.75;;;6.85;90.21
23166;BME280;11751;42.700;24.170;2023-01-15T14:26:43;94078.34;;;6.51;91.91
23166;BME280;11751;42.700;24.170;2023-01-15T14:34:58;94072.78;;;6.51;92.95
23166;BME280;11751;42.700;24.170;2023-01-15T14:37:31;94077.06;;;6.65;93.52
23166;BME280;11751;42.700;24.170;2023-01-15T14:40:02;94076.09;;;6.62;93.37